THY27A LTFJ-LTBH
Flight info
| Callsign | THY27A |
|---|---|
| Flight time | 0h 34m |
| Altitude | 24000 |
| Route | IVGUS1K/24R IVGUS Y226 BIG |
| Aircraft | A339/H-SADE1E2E3GHIJ3J5M1P2RWXY/LB2D1 |
Departure
| Time | 2026-05-05 12:03 |
|---|---|
| Airport | Istanbul Sabiha Gökçen International Airport (LTFJ) |
Arrival
| Time | 2026-05-05 12:37 |
|---|---|
| Airport | Çanakkale Airport (LTBH) |
| Time | Latitude | Longitude | Altitude | Speed | Heading |
|---|---|---|---|---|---|
| 2026-05-05 11:52 | 40.90542 | 29.31394 | 316 ft | 0 kts | 336° |
| 2026-05-05 11:57 | 40.90530 | 29.31401 | 315 ft | 5 kts | 336° |
| 2026-05-05 11:57 | 40.90501 | 29.31418 | 314 ft | 5 kts | 336° |
| 2026-05-05 11:57 | 40.90473 | 29.31435 | 314 ft | 5 kts | 336° |
| 2026-05-05 11:57 | 40.90456 | 29.31449 | 315 ft | 5 kts | 16° |
| 2026-05-05 11:58 | 40.90477 | 29.31487 | 316 ft | 5 kts | 68° |
| 2026-05-05 11:58 | 40.90488 | 29.31525 | 316 ft | 0 kts | 60° |
| 2026-05-05 12:00 | 40.90489 | 29.31526 | 316 ft | 1 kts | 60° |
| 2026-05-05 12:00 | 40.90499 | 29.31551 | 316 ft | 5 kts | 60° |
| 2026-05-05 12:00 | 40.90517 | 29.31613 | 317 ft | 9 kts | 72° |
| 2026-05-05 12:00 | 40.90549 | 29.31708 | 317 ft | 13 kts | 63° |
| 2026-05-05 12:01 | 40.90593 | 29.31837 | 317 ft | 17 kts | 73° |
| 2026-05-05 12:01 | 40.90538 | 29.31963 | 317 ft | 17 kts | 154° |
| 2026-05-05 12:01 | 40.90489 | 29.32060 | 317 ft | 12 kts | 78° |
| 2026-05-05 12:01 | 40.90526 | 29.32175 | 318 ft | 16 kts | 64° |
| 2026-05-05 12:02 | 40.90578 | 29.32322 | 318 ft | 19 kts | 64° |
| 2026-05-05 12:02 | 40.90542 | 29.32452 | 318 ft | 16 kts | 142° |
| 2026-05-05 12:02 | 40.90434 | 29.32473 | 316 ft | 10 kts | 202° |
| 2026-05-05 12:02 | 40.90398 | 29.32394 | 316 ft | 11 kts | 242° |
| 2026-05-05 12:03 | 40.90336 | 29.32237 | 316 ft | 47 kts | 243° |
| 2026-05-05 12:03 | 40.90008 | 29.31360 | 315 ft | 158 kts | 243° |
| 2026-05-05 12:03 | 40.89455 | 29.29906 | 1044 ft | 186 kts | 243° |
| 2026-05-05 12:03 | 40.88852 | 29.28345 | 2350 ft | 194 kts | 244° |
| 2026-05-05 12:04 | 40.88233 | 29.26724 | 3405 ft | 213 kts | 247° |
| 2026-05-05 12:04 | 40.87563 | 29.24789 | 4003 ft | 241 kts | 249° |
| 2026-05-05 12:04 | 40.86880 | 29.22664 | 4694 ft | 261 kts | 251° |
| 2026-05-05 12:04 | 40.86168 | 29.20389 | 5579 ft | 271 kts | 250° |
| 2026-05-05 12:05 | 40.85438 | 29.18090 | 6645 ft | 272 kts | 251° |
| 2026-05-05 12:05 | 40.84708 | 29.15752 | 7548 ft | 278 kts | 251° |
| 2026-05-05 12:05 | 40.83973 | 29.13363 | 8478 ft | 283 kts | 251° |
| 2026-05-05 12:05 | 40.83229 | 29.10925 | 9420 ft | 289 kts | 251° |
| 2026-05-05 12:06 | 40.82479 | 29.08461 | 10300 ft | 296 kts | 251° |
| 2026-05-05 12:06 | 40.81685 | 29.05838 | 10730 ft | 319 kts | 251° |
| 2026-05-05 12:06 | 40.80831 | 29.03019 | 11092 ft | 341 kts | 251° |
| 2026-05-05 12:06 | 40.79933 | 29.00075 | 11819 ft | 348 kts | 251° |
| 2026-05-05 12:07 | 40.79021 | 28.97099 | 12640 ft | 352 kts | 250° |
| 2026-05-05 12:07 | 40.78099 | 28.94096 | 12916 ft | 354 kts | 250° |
| 2026-05-05 12:07 | 40.77172 | 28.91080 | 12917 ft | 355 kts | 250° |
| 2026-05-05 12:07 | 40.76243 | 28.88056 | 12919 ft | 355 kts | 250° |
| 2026-05-05 12:08 | 40.75316 | 28.85041 | 12917 ft | 355 kts | 250° |
| 2026-05-05 12:08 | 40.74386 | 28.82017 | 12915 ft | 355 kts | 250° |
| 2026-05-05 12:08 | 40.73469 | 28.79037 | 12913 ft | 355 kts | 250° |
| 2026-05-05 12:08 | 40.72540 | 28.76021 | 12912 ft | 355 kts | 250° |
| 2026-05-05 12:09 | 40.71607 | 28.72996 | 12911 ft | 355 kts | 250° |
| 2026-05-05 12:09 | 40.70674 | 28.69973 | 12909 ft | 355 kts | 250° |
| 2026-05-05 12:09 | 40.69743 | 28.66960 | 12910 ft | 355 kts | 250° |
| 2026-05-05 12:09 | 40.68810 | 28.63943 | 12910 ft | 355 kts | 250° |
| 2026-05-05 12:10 | 40.67876 | 28.60929 | 12906 ft | 355 kts | 250° |
| 2026-05-05 12:10 | 40.66941 | 28.57913 | 12906 ft | 356 kts | 250° |
| 2026-05-05 12:10 | 40.66003 | 28.54892 | 12906 ft | 356 kts | 251° |
| 2026-05-05 12:10 | 40.65065 | 28.51873 | 12904 ft | 356 kts | 251° |
| 2026-05-05 12:11 | 40.64126 | 28.48855 | 12902 ft | 356 kts | 250° |
| 2026-05-05 12:11 | 40.63195 | 28.45867 | 12905 ft | 357 kts | 250° |
| 2026-05-05 12:11 | 40.62253 | 28.42847 | 12901 ft | 357 kts | 251° |
| 2026-05-05 12:11 | 40.61311 | 28.39831 | 12903 ft | 357 kts | 251° |
| 2026-05-05 12:12 | 40.60367 | 28.36811 | 12905 ft | 356 kts | 251° |
| 2026-05-05 12:12 | 40.59423 | 28.33792 | 12903 ft | 357 kts | 251° |
| 2026-05-05 12:12 | 40.58477 | 28.30773 | 12894 ft | 357 kts | 251° |
| 2026-05-05 12:12 | 40.57532 | 28.27758 | 12898 ft | 357 kts | 251° |
| 2026-05-05 12:13 | 40.56578 | 28.24715 | 13186 ft | 361 kts | 251° |
| 2026-05-05 12:13 | 40.55620 | 28.21664 | 14101 ft | 361 kts | 251° |
| 2026-05-05 12:13 | 40.54655 | 28.18596 | 14865 ft | 365 kts | 251° |
| 2026-05-05 12:13 | 40.53677 | 28.15491 | 15606 ft | 369 kts | 251° |
| 2026-05-05 12:14 | 40.52689 | 28.12356 | 16349 ft | 373 kts | 251° |
| 2026-05-05 12:14 | 40.51691 | 28.09197 | 17074 ft | 377 kts | 251° |
| 2026-05-05 12:14 | 40.50691 | 28.06034 | 17808 ft | 380 kts | 251° |
| 2026-05-05 12:14 | 40.49671 | 28.02809 | 18512 ft | 385 kts | 251° |
| 2026-05-05 12:15 | 40.48638 | 27.99546 | 19193 ft | 387 kts | 251° |
| 2026-05-05 12:15 | 40.47598 | 27.96268 | 19905 ft | 389 kts | 251° |
| 2026-05-05 12:15 | 40.46552 | 27.92974 | 20587 ft | 392 kts | 251° |
| 2026-05-05 12:15 | 40.45500 | 27.89660 | 21291 ft | 395 kts | 251° |
| 2026-05-05 12:16 | 40.44436 | 27.86319 | 21973 ft | 398 kts | 251° |
| 2026-05-05 12:16 | 40.43362 | 27.82953 | 22664 ft | 401 kts | 251° |
| 2026-05-05 12:16 | 40.42280 | 27.79566 | 23396 ft | 404 kts | 251° |
| 2026-05-05 12:16 | 40.41188 | 27.76148 | 23853 ft | 407 kts | 251° |
| 2026-05-05 12:17 | 40.40086 | 27.72707 | 24018 ft | 408 kts | 251° |
| 2026-05-05 12:17 | 40.38991 | 27.69283 | 24076 ft | 421 kts | 251° |
| 2026-05-05 12:17 | 40.37850 | 27.65720 | 24077 ft | 423 kts | 251° |
| 2026-05-05 12:17 | 40.36708 | 27.62171 | 24078 ft | 423 kts | 251° |
| 2026-05-05 12:18 | 40.35561 | 27.58608 | 24079 ft | 423 kts | 251° |
| 2026-05-05 12:18 | 40.34428 | 27.55093 | 24066 ft | 422 kts | 251° |
| 2026-05-05 12:18 | 40.33278 | 27.51532 | 23693 ft | 418 kts | 251° |
| 2026-05-05 12:18 | 40.32145 | 27.48026 | 22965 ft | 416 kts | 251° |
| 2026-05-05 12:19 | 40.31020 | 27.44545 | 22135 ft | 411 kts | 251° |
| 2026-05-05 12:19 | 40.29909 | 27.41111 | 21164 ft | 407 kts | 251° |
| 2026-05-05 12:19 | 40.29001 | 27.37637 | 20165 ft | 400 kts | 259° |
| 2026-05-05 12:19 | 40.28509 | 27.34097 | 19359 ft | 391 kts | 268° |
| 2026-05-05 12:20 | 40.28395 | 27.30565 | 18746 ft | 386 kts | 274° |
| 2026-05-05 12:20 | 40.28413 | 27.27060 | 17949 ft | 383 kts | 274° |
| 2026-05-05 12:20 | 40.28419 | 27.23592 | 16973 ft | 378 kts | 274° |
| 2026-05-05 12:20 | 40.28417 | 27.20169 | 16004 ft | 374 kts | 274° |
| 2026-05-05 12:21 | 40.28410 | 27.16788 | 15067 ft | 369 kts | 274° |
| 2026-05-05 12:21 | 40.28402 | 27.13439 | 14155 ft | 365 kts | 274° |
| 2026-05-05 12:21 | 40.28392 | 27.10131 | 13176 ft | 361 kts | 274° |
| 2026-05-05 12:21 | 40.28381 | 27.06906 | 12236 ft | 356 kts | 274° |
| 2026-05-05 12:22 | 40.28370 | 27.03681 | 11296 ft | 351 kts | 274° |
| 2026-05-05 12:22 | 40.28356 | 27.00504 | 10390 ft | 347 kts | 274° |
| 2026-05-05 12:22 | 40.28342 | 26.97398 | 9916 ft | 331 kts | 274° |
| 2026-05-05 12:22 | 40.28323 | 26.94495 | 9672 ft | 307 kts | 274° |
| 2026-05-05 12:23 | 40.28304 | 26.91791 | 9342 ft | 288 kts | 274° |
| 2026-05-05 12:23 | 40.28292 | 26.89193 | 8681 ft | 282 kts | 274° |
| 2026-05-05 12:23 | 40.28287 | 26.86628 | 7894 ft | 281 kts | 274° |
| 2026-05-05 12:23 | 40.28278 | 26.84090 | 7263 ft | 276 kts | 274° |
| 2026-05-05 12:24 | 40.28266 | 26.81588 | 6580 ft | 273 kts | 274° |
| 2026-05-05 12:24 | 40.28255 | 26.79147 | 6019 ft | 268 kts | 273° |
| 2026-05-05 12:24 | 40.28249 | 26.76692 | 5742 ft | 272 kts | 273° |
| 2026-05-05 12:24 | 40.28235 | 26.74211 | 5626 ft | 271 kts | 272° |
| 2026-05-05 12:25 | 40.28223 | 26.71741 | 5503 ft | 271 kts | 272° |
| 2026-05-05 12:25 | 40.28210 | 26.69274 | 5367 ft | 269 kts | 272° |
| 2026-05-05 12:25 | 40.28195 | 26.66830 | 5244 ft | 268 kts | 272° |
| 2026-05-05 12:25 | 40.28181 | 26.64366 | 5139 ft | 270 kts | 272° |
| 2026-05-05 12:26 | 40.28171 | 26.61936 | 5033 ft | 270 kts | 272° |
| 2026-05-05 12:26 | 40.28162 | 26.59474 | 4997 ft | 270 kts | 272° |
| 2026-05-05 12:26 | 40.28146 | 26.57025 | 4990 ft | 268 kts | 272° |
| 2026-05-05 12:26 | 40.28117 | 26.54569 | 4996 ft | 270 kts | 271° |
| 2026-05-05 12:27 | 40.28083 | 26.52111 | 4995 ft | 270 kts | 271° |
| 2026-05-05 12:27 | 40.28054 | 26.49645 | 4999 ft | 270 kts | 271° |
| 2026-05-05 12:27 | 40.28033 | 26.47191 | 4991 ft | 272 kts | 272° |
| 2026-05-05 12:27 | 40.28018 | 26.44725 | 5009 ft | 272 kts | 272° |
| 2026-05-05 12:28 | 40.27998 | 26.42257 | 4980 ft | 273 kts | 272° |
| 2026-05-05 12:28 | 40.27889 | 26.39780 | 4996 ft | 274 kts | 261° |
| 2026-05-05 12:28 | 40.27104 | 26.37500 | 4994 ft | 279 kts | 235° |
| 2026-05-05 12:28 | 40.25722 | 26.35686 | 5000 ft | 282 kts | 221° |
| 2026-05-05 12:29 | 40.24196 | 26.34072 | 4997 ft | 283 kts | 219° |
| 2026-05-05 12:29 | 40.22664 | 26.32495 | 5004 ft | 281 kts | 219° |
| 2026-05-05 12:29 | 40.21133 | 26.30873 | 5001 ft | 279 kts | 220° |
| 2026-05-05 12:29 | 40.19658 | 26.29250 | 4996 ft | 281 kts | 221° |
| 2026-05-05 12:30 | 40.18180 | 26.27591 | 5000 ft | 280 kts | 222° |
| 2026-05-05 12:30 | 40.16711 | 26.25918 | 4996 ft | 281 kts | 222° |
| 2026-05-05 12:30 | 40.15249 | 26.24233 | 4999 ft | 281 kts | 222° |
| 2026-05-05 12:30 | 40.13772 | 26.22557 | 4989 ft | 279 kts | 222° |
| 2026-05-05 12:31 | 40.12301 | 26.20894 | 4995 ft | 280 kts | 222° |
| 2026-05-05 12:31 | 40.10826 | 26.19223 | 4993 ft | 280 kts | 222° |
| 2026-05-05 12:31 | 40.09353 | 26.17553 | 4995 ft | 279 kts | 222° |
| 2026-05-05 12:31 | 40.07880 | 26.15884 | 4991 ft | 280 kts | 222° |
| 2026-05-05 12:32 | 40.06334 | 26.14353 | 4993 ft | 281 kts | 208° |
| 2026-05-05 12:32 | 40.04468 | 26.13665 | 4980 ft | 279 kts | 183° |
| 2026-05-05 12:32 | 40.02577 | 26.14010 | 4652 ft | 273 kts | 159° |
| 2026-05-05 12:32 | 40.01005 | 26.15312 | 4024 ft | 267 kts | 133° |
| 2026-05-05 12:33 | 40.00043 | 26.17327 | 3242 ft | 261 kts | 107° |
| 2026-05-05 12:33 | 39.99758 | 26.19646 | 2769 ft | 261 kts | 91° |
| 2026-05-05 12:33 | 39.99717 | 26.21983 | 2531 ft | 258 kts | 88° |
| 2026-05-05 12:33 | 39.99731 | 26.24353 | 2478 ft | 261 kts | 84° |
| 2026-05-05 12:34 | 40.00293 | 26.26548 | 2499 ft | 256 kts | 56° |
| 2026-05-05 12:34 | 40.01426 | 26.28335 | 2500 ft | 256 kts | 43° |
| 2026-05-05 12:34 | 40.02744 | 26.29889 | 2492 ft | 255 kts | 38° |
| 2026-05-05 12:34 | 40.04072 | 26.31424 | 2348 ft | 253 kts | 40° |
| 2026-05-05 12:35 | 40.05318 | 26.32862 | 2005 ft | 224 kts | 39° |
| 2026-05-05 12:35 | 40.06417 | 26.34148 | 1726 ft | 202 kts | 39° |
| 2026-05-05 12:35 | 40.07422 | 26.35310 | 1456 ft | 186 kts | 39° |
| 2026-05-05 12:35 | 40.08349 | 26.36391 | 1288 ft | 170 kts | 40° |
| 2026-05-05 12:36 | 40.08913 | 26.37044 | 1246 ft | 157 kts | 40° |
| 2026-05-05 12:36 | 40.09669 | 26.38004 | 1026 ft | 146 kts | 42° |
| 2026-05-05 12:36 | 40.10421 | 26.38882 | 655 ft | 145 kts | 40° |
| 2026-05-05 12:36 | 40.11160 | 26.39732 | 475 ft | 146 kts | 38° |
| 2026-05-05 12:37 | 40.11919 | 26.40591 | 298 ft | 140 kts | 38° |
| 2026-05-05 12:37 | 40.12675 | 26.41466 | 103 ft | 146 kts | 38° |
| 2026-05-05 12:37 | 40.13395 | 26.42270 | 40 ft | 116 kts | 41° |
| 2026-05-05 12:37 | 40.13818 | 26.42746 | 41 ft | 37 kts | 34° |
| 2026-05-05 12:38 | 40.13897 | 26.42727 | 42 ft | 7 kts | 300° |
| 2026-05-05 12:38 | 40.13904 | 26.42712 | 42 ft | 2 kts | 300° |
| 2026-05-05 12:38 | 40.13910 | 26.42699 | 42 ft | 2 kts | 300° |
| 2026-05-05 12:38 | 40.13928 | 26.42664 | 42 ft | 8 kts | 304° |
| 2026-05-05 12:39 | 40.13912 | 26.42588 | 40 ft | 11 kts | 224° |
| 2026-05-05 12:39 | 40.13884 | 26.42569 | 42 ft | 0 kts | 212° |
| 2026-05-05 12:39 | 40.13872 | 26.42554 | 40 ft | 6 kts | 223° |
| 2026-05-05 12:39 | 40.13850 | 26.42479 | 41 ft | 11 kts | 264° |
| 2026-05-05 12:40 | 40.13875 | 26.42420 | 40 ft | 0 kts | 313° |